Kungrad, Uzbekistan
Current Conditions -  °F | °C
As of 1:00 AM on Saturday 22 Nov 2014 (Local Time) from UTNN Reporting Station
Clear Clear  
Wind Chill: 14°   Ceiling: Unl
Heat Index: 21°   Visibility: 6mi
Dew Point:   Wind: 6mph
Humidity: 54%   Direction: 70°ENE
Pressure: 30.42"   Gusts: NA
Location:  43.07°N, 58.91°E
Report Text: UTNN 212000Z 07005KT CAVOK M06/M14 Q1030 R15/CLRD60 NOSIG
Loading
Personal Weather Stations






























Interactive Weather Map New forecast layout! Learn more

10-Day Weather Forecast

Advertisements
Track Severe Weather on mobile